Time;durP1;ratioP1;P1;durP2;ratioP2;P2;SDS_P1;SDS_P2;PMS_P1;PMS_P2;Temp;Humidity;BMP_temperature;BMP_pressure;BME280_temperature;BME280_humidity;BME280_pressure;Samples;Min_cycle;Max_cycle;Signal;HPM_P1;HPM_P2
2022/02/22 00:01:45;;;;;;;;;;;11.80;72.90;;;;;;4980413;28;20098;-65
2022/02/22 00:04:10;;;;;;;;;;;11.80;72.90;;;;;;4980204;28;19914;-65
2022/02/22 00:06:36;;;;;;;;;;;11.80;72.90;;;;;;4980275;28;19920;-65
2022/02/22 00:09:02;;;;;;;;;;;11.80;72.90;;;;;;4980308;28;19917;-64
2022/02/22 00:11:28;;;;;;;;;;;11.80;72.90;;;;;;4980193;28;19937;-65
2022/02/22 00:13:54;;;;;;;;;;;11.80;73.00;;;;;;4980179;28;19921;-64
2022/02/22 00:16:20;;;;;;;;;;;11.80;73.00;;;;;;4980087;28;19902;-65
2022/02/22 00:18:45;;;;;;;;;;;11.80;72.90;;;;;;4980090;28;19909;-64
2022/02/22 00:21:12;;;;;;;;;;;11.80;72.90;;;;;;4980058;28;20275;-64
2022/02/22 00:23:38;;;;;;;;;;;11.80;73.00;;;;;;4979898;28;19977;-65
2022/02/22 00:26:04;;;;;;;;;;;11.80;73.00;;;;;;4980037;28;19977;-65
2022/02/22 00:28:30;;;;;;;;;;;11.80;72.90;;;;;;4979815;28;19902;-64
2022/02/22 00:30:55;;;;;;;;;;;11.80;72.90;;;;;;4979899;28;19974;-64
2022/02/22 00:33:21;;;;;;;;;;;11.80;72.90;;;;;;4979765;28;19946;-64
2022/02/22 00:35:47;;;;;;;;;;;11.80;72.90;;;;;;4979731;28;19981;-64
2022/02/22 00:38:12;;;;;;;;;;;11.80;72.90;;;;;;4979783;28;20098;-64
2022/02/22 00:40:38;;;;;;;;;;;11.80;72.90;;;;;;4979609;28;19931;-64
2022/02/22 00:43:03;;;;;;;;;;;11.80;72.90;;;;;;4979530;28;20218;-64
2022/02/22 00:45:29;;;;;;;;;;;11.80;72.90;;;;;;4979762;28;19956;-64
2022/02/22 00:47:55;;;;;;;;;;;11.80;72.90;;;;;;4979510;28;19977;-64
2022/02/22 00:50:20;;;;;;;;;;;11.80;72.90;;;;;;4979717;28;20042;-64
2022/02/22 00:52:46;;;;;;;;;;;11.80;73.00;;;;;;4979523;28;20423;-65
2022/02/22 00:55:11;;;;;;;;;;;11.80;72.90;;;;;;4979521;28;19967;-64
2022/02/22 00:57:41;;;;;;;;;;;11.80;72.90;;;;;;4979424;28;20082;-64
2022/02/22 01:00:08;;;;;;;;;;;11.80;73.00;;;;;;4979327;28;19964;-65
2022/02/22 01:02:33;;;;;;;;;;;11.80;73.00;;;;;;4978607;28;19902;-65
2022/02/22 01:04:59;;;;;;;;;;;11.80;73.00;;;;;;4978154;28;20113;-65
2022/02/22 01:07:24;;;;;;;;;;;11.80;73.00;;;;;;4979302;28;19932;-65
2022/02/22 01:09:50;;;;;;;;;;;11.80;73.00;;;;;;4979130;28;19910;-64
2022/02/22 01:12:17;;;;;;;;;;;11.80;73.00;;;;;;4979175;28;20178;-64
2022/02/22 01:14:42;;;;;;;;;;;11.80;73.00;;;;;;4979116;28;20102;-65
2022/02/22 01:17:08;;;;;;;;;;;11.80;73.00;;;;;;4979046;28;19902;-64
2022/02/22 01:19:34;;;;;;;;;;;11.80;73.00;;;;;;4979029;28;19949;-65
2022/02/22 01:22:00;;;;;;;;;;;11.80;73.00;;;;;;4978999;28;19909;-66
2022/02/22 01:24:26;;;;;;;;;;;11.80;73.00;;;;;;4978948;28;19920;-64
2022/02/22 01:26:51;;;;;;;;;;;11.80;73.00;;;;;;4978938;28;19910;-64
2022/02/22 01:29:18;;;;;;;;;;;11.80;73.00;;;;;;4978811;28;19910;-64
2022/02/22 01:31:44;;;;;;;;;;;11.80;73.10;;;;;;4978975;28;20323;-64
2022/02/22 01:34:10;;;;;;;;;;;11.80;73.00;;;;;;4977629;28;19981;-65
2022/02/22 01:36:36;;;;;;;;;;;11.80;73.00;;;;;;4977581;28;19944;-65
2022/02/22 01:39:02;;;;;;;;;;;11.80;73.00;;;;;;4978801;28;20178;-65
2022/02/22 01:41:29;;;;;;;;;;;11.70;73.00;;;;;;4977377;28;20021;-65
2022/02/22 01:43:55;;;;;;;;;;;11.70;73.00;;;;;;4978698;28;19976;-64
2022/02/22 01:46:21;;;;;;;;;;;11.80;73.00;;;;;;4978681;28;19981;-65
2022/02/22 01:48:46;;;;;;;;;;;11.80;73.10;;;;;;4978567;28;19910;-65
2022/02/22 01:51:12;;;;;;;;;;;11.80;73.10;;;;;;4978506;28;19941;-65
2022/02/22 01:53:39;;;;;;;;;;;11.80;73.10;;;;;;4978490;28;20191;-65
2022/02/22 01:56:07;;;;;;;;;;;11.80;73.00;;;;;;4978513;28;19981;-64
2022/02/22 01:58:33;;;;;;;;;;;11.80;73.10;;;;;;4978433;28;20214;-64
2022/02/22 02:00:59;;;;;;;;;;;11.70;73.00;;;;;;4978359;28;19932;-64
2022/02/22 02:03:26;;;;;;;;;;;11.80;73.10;;;;;;4977226;28;20137;-64
2022/02/22 02:05:52;;;;;;;;;;;11.80;73.10;;;;;;4978431;28;20139;-63
2022/02/22 02:08:18;;;;;;;;;;;11.70;73.00;;;;;;4978329;28;19909;-64
2022/02/22 02:10:43;;;;;;;;;;;11.80;73.10;;;;;;4978264;28;19937;-64
2022/02/22 02:13:09;;;;;;;;;;;11.80;73.10;;;;;;4978195;28;19910;-64
2022/02/22 02:15:34;;;;;;;;;;;11.70;73.00;;;;;;4977133;28;19902;-64
2022/02/22 02:18:00;;;;;;;;;;;11.70;73.10;;;;;;4978115;28;20095;-64
2022/02/22 02:20:26;;;;;;;;;;;11.80;73.10;;;;;;4977900;28;19956;-64
2022/02/22 02:22:51;;;;;;;;;;;11.70;73.10;;;;;;4978203;28;19948;-64
2022/02/22 02:25:17;;;;;;;;;;;11.70;73.10;;;;;;4978058;28;19976;-64
2022/02/22 02:27:43;;;;;;;;;;;11.70;73.00;;;;;;4978134;28;19969;-64
2022/02/22 02:30:09;;;;;;;;;;;11.80;73.10;;;;;;4977990;28;19973;-64
2022/02/22 02:32:35;;;;;;;;;;;11.80;73.10;;;;;;4977977;28;19944;-64
2022/02/22 02:35:01;;;;;;;;;;;11.70;73.10;;;;;;4977986;28;19918;-64
2022/02/22 02:37:26;;;;;;;;;;;11.70;73.00;;;;;;4977969;28;19910;-63
2022/02/22 02:39:52;;;;;;;;;;;11.70;73.00;;;;;;4977990;28;19940;-64
2022/02/22 02:42:18;;;;;;;;;;;11.70;73.10;;;;;;4977689;28;19913;-64
2022/02/22 02:44:45;;;;;;;;;;;11.70;73.10;;;;;;4977903;28;20292;-64
2022/02/22 02:47:10;;;;;;;;;;;11.80;73.10;;;;;;4977814;28;19946;-63
2022/02/22 02:49:36;;;;;;;;;;;11.70;73.00;;;;;;4977922;28;19910;-63
2022/02/22 02:52:01;;;;;;;;;;;11.80;73.10;;;;;;4977822;28;19981;-63
2022/02/22 02:54:27;;;;;;;;;;;11.70;73.10;;;;;;4977714;28;19918;-64
2022/02/22 02:56:53;;;;;;;;;;;11.80;73.10;;;;;;4977839;28;20206;-64
2022/02/22 02:59:18;;;;;;;;;;;11.70;73.10;;;;;;4977751;28;19981;-64
2022/02/22 03:01:44;;;;;;;;;;;11.70;73.10;;;;;;4977832;28;19910;-64
2022/02/22 03:04:10;;;;;;;;;;;11.70;73.10;;;;;;4977653;28;19906;-64
2022/02/22 03:06:36;;;;;;;;;;;11.70;73.10;;;;;;4977682;28;20039;-63
2022/02/22 03:09:02;;;;;;;;;;;11.70;73.10;;;;;;4977698;28;19909;-64
2022/02/22 03:11:28;;;;;;;;;;;11.70;73.10;;;;;;4977566;28;19902;-64
2022/02/22 03:13:54;;;;;;;;;;;11.70;73.10;;;;;;4976488;28;20480;-63
2022/02/22 03:16:19;;;;;;;;;;;11.70;73.10;;;;;;4977487;28;19914;-64
2022/02/22 03:18:45;;;;;;;;;;;11.70;73.20;;;;;;4977511;28;19910;-64
2022/02/22 03:21:11;;;;;;;;;;;11.70;73.20;;;;;;4977450;28;20328;-63
2022/02/22 03:23:36;;;;;;;;;;;11.70;73.10;;;;;;4977374;28;19914;-64
2022/02/22 03:26:02;;;;;;;;;;;11.70;73.10;;;;;;4978092;28;19948;-63
2022/02/22 03:28:28;;;;;;;;;;;11.70;73.10;;;;;;4980720;28;19964;-64
2022/02/22 03:30:54;;;;;;;;;;;11.70;73.10;;;;;;4980768;28;19933;-63
2022/02/22 03:33:20;;;;;;;;;;;11.70;73.10;;;;;;4980682;28;20352;-64
2022/02/22 03:35:46;;;;;;;;;;;11.70;73.10;;;;;;4980665;28;19922;-64
2022/02/22 03:38:12;;;;;;;;;;;11.70;73.10;;;;;;4980610;28;19917;-63
2022/02/22 03:40:38;;;;;;;;;;;11.70;73.10;;;;;;4980561;28;19902;-63
2022/02/22 03:43:04;;;;;;;;;;;11.70;73.10;;;;;;4980318;28;20027;-63
2022/02/22 03:45:30;;;;;;;;;;;11.70;73.10;;;;;;4980502;28;19910;-63
2022/02/22 03:47:55;;;;;;;;;;;11.70;73.10;;;;;;4980458;28;19914;-63
2022/02/22 03:50:21;;;;;;;;;;;11.70;73.10;;;;;;4980450;28;20024;-63
2022/02/22 03:52:47;;;;;;;;;;;11.70;73.10;;;;;;4980357;28;19977;-63
2022/02/22 03:55:13;;;;;;;;;;;11.70;73.10;;;;;;4980321;28;20196;-64
2022/02/22 03:57:38;;;;;;;;;;;11.70;73.10;;;;;;4980255;28;19902;-63
2022/02/22 04:00:08;;;;;;;;;;;11.70;73.10;;;;;;4980379;28;19914;-63
2022/02/22 04:02:34;;;;;;;;;;;11.70;73.10;;;;;;4980328;28;19987;-63
2022/02/22 04:05:01;;;;;;;;;;;11.70;73.70;;;;;;4980180;28;19936;-64
2022/02/22 04:07:28;;;;;;;;;;;11.70;73.10;;;;;;4980205;28;19910;-63
2022/02/22 04:09:53;;;;;;;;;;;11.70;73.10;;;;;;4980233;28;19939;-63
2022/02/22 04:12:19;;;;;;;;;;;11.70;73.10;;;;;;4980119;28;19918;-63
2022/02/22 04:14:44;;;;;;;;;;;11.70;73.10;;;;;;4978924;28;19917;-64
2022/02/22 04:17:10;;;;;;;;;;;11.70;73.10;;;;;;4979999;28;19910;-63
2022/02/22 04:19:35;;;;;;;;;;;11.70;73.10;;;;;;4979992;28;19910;-64
2022/02/22 04:22:01;;;;;;;;;;;11.70;73.10;;;;;;4979968;28;20245;-64
2022/02/22 04:24:27;;;;;;;;;;;11.70;73.10;;;;;;4979854;28;20145;-64
2022/02/22 04:26:53;;;;;;;;;;;11.70;73.10;;;;;;4979909;28;19909;-64
2022/02/22 04:29:19;;;;;;;;;;;11.70;73.10;;;;;;4979814;28;19910;-64
2022/02/22 04:31:44;;;;;;;;;;;11.70;73.10;;;;;;4979890;28;19917;-65
2022/02/22 04:34:10;;;;;;;;;;;11.70;73.10;;;;;;4979739;28;19910;-64
2022/02/22 04:36:36;;;;;;;;;;;11.70;73.10;;;;;;4979756;28;19910;-65
2022/02/22 04:39:02;;;;;;;;;;;11.70;73.10;;;;;;4978684;28;20169;-65
2022/02/22 04:41:28;;;;;;;;;;;11.70;73.10;;;;;;4979597;28;20189;-64
2022/02/22 04:43:53;;;;;;;;;;;11.70;73.10;;;;;;4979468;28;19944;-65
2022/02/22 04:46:19;;;;;;;;;;;11.70;73.10;;;;;;4979560;28;20198;-65
2022/02/22 04:48:44;;;;;;;;;;;11.70;73.10;;;;;;4979588;28;19902;-64
2022/02/22 04:51:10;;;;;;;;;;;11.70;73.10;;;;;;4979513;28;19952;-64
2022/02/22 04:53:36;;;;;;;;;;;11.70;73.10;;;;;;4979460;28;19910;-64
2022/02/22 04:56:01;;;;;;;;;;;11.70;73.10;;;;;;4979450;28;20199;-64
2022/02/22 04:58:27;;;;;;;;;;;11.70;73.10;;;;;;4979382;28;19910;-65
2022/02/22 05:00:53;;;;;;;;;;;11.70;73.10;;;;;;4979364;28;19909;-65
2022/02/22 05:03:18;;;;;;;;;;;11.70;73.10;;;;;;4979204;28;19944;-64
2022/02/22 05:05:44;;;;;;;;;;;11.70;73.00;;;;;;4979372;28;19917;-64
2022/02/22 05:08:09;;;;;;;;;;;11.70;73.00;;;;;;4979223;28;20225;-65
2022/02/22 05:10:35;;;;;;;;;;;11.70;73.10;;;;;;4979189;28;19973;-64
2022/02/22 05:13:01;;;;;;;;;;;11.70;73.10;;;;;;4979195;28;19984;-64
2022/02/22 05:15:31;;;;;;;;;;;11.70;73.10;;;;;;4979126;28;19910;-65
2022/02/22 05:17:57;;;;;;;;;;;11.70;73.70;;;;;;4979387;28;19910;-64
2022/02/22 05:20:22;;;;;;;;;;;11.70;73.10;;;;;;4977825;28;20093;-64
2022/02/22 05:22:48;;;;;;;;;;;11.70;73.10;;;;;;4979054;28;19936;-64
2022/02/22 05:25:14;;;;;;;;;;;11.70;73.10;;;;;;4978967;28;19921;-64
2022/02/22 05:27:40;;;;;;;;;;;11.70;73.10;;;;;;4978959;28;20157;-64
2022/02/22 05:30:07;;;;;;;;;;;11.70;73.10;;;;;;4978909;28;20000;-64
2022/02/22 05:32:33;;;;;;;;;;;11.70;73.10;;;;;;4978789;28;19981;-64
2022/02/22 05:34:59;;;;;;;;;;;11.70;73.10;;;;;;4978799;28;20215;-65
2022/02/22 05:37:25;;;;;;;;;;;11.70;73.10;;;;;;4978848;28;19917;-64
2022/02/22 05:39:51;;;;;;;;;;;11.70;73.10;;;;;;4978770;28;19910;-64
2022/02/22 05:42:17;;;;;;;;;;;11.70;73.10;;;;;;4978604;28;19976;-64
2022/02/22 05:44:43;;;;;;;;;;;11.70;73.10;;;;;;4978692;28;20214;-64
2022/02/22 05:47:08;;;;;;;;;;;11.70;73.10;;;;;;4978648;28;19910;-63
2022/02/22 05:49:34;;;;;;;;;;;11.70;73.10;;;;;;4978458;28;19916;-63
2022/02/22 05:52:00;;;;;;;;;;;11.70;73.00;;;;;;4978635;28;19902;-64
2022/02/22 05:54:25;;;;;;;;;;;11.70;73.00;;;;;;4978608;28;19910;-64
2022/02/22 05:56:51;;;;;;;;;;;11.70;73.00;;;;;;4978537;28;19909;-64
2022/02/22 05:59:16;;;;;;;;;;;11.70;73.00;;;;;;4978488;28;19910;-65
2022/02/22 06:01:43;;;;;;;;;;;11.70;73.00;;;;;;4978518;28;20129;-64
2022/02/22 06:04:10;;;;;;;;;;;11.70;73.00;;;;;;4978296;28;19913;-64
2022/02/22 06:06:36;;;;;;;;;;;11.70;72.90;;;;;;4978436;28;20152;-64
2022/02/22 06:09:02;;;;;;;;;;;11.70;72.90;;;;;;4978427;28;20000;-64
2022/02/22 06:11:27;;;;;;;;;;;11.70;72.90;;;;;;4978356;28;20190;-64
2022/02/22 06:13:53;;;;;;;;;;;11.70;72.90;;;;;;4978326;28;19906;-63
2022/02/22 06:16:18;;;;;;;;;;;11.70;72.90;;;;;;4978232;28;19902;-64
2022/02/22 06:18:44;;;;;;;;;;;11.70;72.90;;;;;;4978290;28;19910;-64
2022/02/22 06:21:10;;;;;;;;;;;11.70;73.00;;;;;;4978207;28;19909;-63
2022/02/22 06:23:35;;;;;;;;;;;11.70;72.90;;;;;;4978076;28;20144;-64
2022/02/22 06:26:01;;;;;;;;;;;11.70;72.90;;;;;;4978152;28;19910;-64
2022/02/22 06:28:26;;;;;;;;;;;11.70;72.90;;;;;;4978068;28;20209;-64
2022/02/22 06:30:52;;;;;;;;;;;11.70;72.90;;;;;;4978116;28;19910;-64
2022/02/22 06:33:17;;;;;;;;;;;11.70;72.90;;;;;;4978016;28;19902;-64
2022/02/22 06:35:43;;;;;;;;;;;11.70;73.00;;;;;;4978156;28;19902;-64
2022/02/22 06:38:09;;;;;;;;;;;11.70;72.90;;;;;;4978051;28;20202;-64
2022/02/22 06:40:36;;;;;;;;;;;11.70;72.90;;;;;;4977998;28;19986;-64
2022/02/22 06:43:02;;;;;;;;;;;11.70;72.90;;;;;;4977940;28;19928;-64
2022/02/22 06:45:28;;;;;;;;;;;11.70;72.90;;;;;;4977841;28;20206;-63
2022/02/22 06:47:53;;;;;;;;;;;11.80;72.90;;;;;;4977905;28;19940;-63
2022/02/22 06:50:19;;;;;;;;;;;11.70;72.90;;;;;;4976532;28;20110;-64
2022/02/22 06:52:45;;;;;;;;;;;11.70;72.80;;;;;;4977886;28;19902;-64
2022/02/22 06:55:12;;;;;;;;;;;11.80;72.90;;;;;;4977782;28;19945;-64
2022/02/22 06:57:38;;;;;;;;;;;11.70;72.80;;;;;;4977822;28;19902;-64
2022/02/22 07:00:07;;;;;;;;;;;11.80;72.80;;;;;;4977789;28;19910;-64
2022/02/22 07:02:33;;;;;;;;;;;11.80;73.40;;;;;;4980601;28;19933;-64
2022/02/22 07:04:59;;;;;;;;;;;11.80;72.80;;;;;;4981021;28;20375;-64
2022/02/22 07:07:25;;;;;;;;;;;11.80;72.60;;;;;;4981081;28;19911;-64
2022/02/22 07:09:51;;;;;;;;;;;11.80;72.60;;;;;;4980954;28;19909;-63
2022/02/22 07:12:17;;;;;;;;;;;11.80;72.50;;;;;;4980956;28;19946;-63
2022/02/22 07:14:42;;;;;;;;;;;11.90;72.50;;;;;;4980913;28;20246;-65
2022/02/22 07:17:09;;;;;;;;;;;11.90;72.40;;;;;;4980944;28;20221;-63
2022/02/22 07:19:35;;;;;;;;;;;11.90;72.30;;;;;;4980831;28;19908;-64
2022/02/22 07:22:01;;;;;;;;;;;11.90;72.20;;;;;;4980785;28;19945;-64
2022/02/22 07:24:26;;;;;;;;;;;12.00;72.20;;;;;;4980791;28;19956;-64
2022/02/22 07:26:52;;;;;;;;;;;12.00;72.00;;;;;;4980738;28;20102;-63
2022/02/22 07:29:18;;;;;;;;;;;12.00;72.00;;;;;;4980776;28;19902;-64
2022/02/22 07:31:43;;;;;;;;;;;12.10;71.80;;;;;;4980809;28;19902;-64
2022/02/22 07:34:09;;;;;;;;;;;12.10;71.80;;;;;;4980706;28;19917;-63
2022/02/22 07:36:34;;;;;;;;;;;12.10;71.80;;;;;;4980766;28;19937;-64
2022/02/22 07:39:00;;;;;;;;;;;12.20;71.60;;;;;;4980661;28;19910;-64
2022/02/22 07:41:26;;;;;;;;;;;12.30;71.30;;;;;;4979269;28;19917;-64
2022/02/22 07:43:52;;;;;;;;;;;12.30;71.20;;;;;;4980426;28;20344;-64
2022/02/22 07:46:18;;;;;;;;;;;12.20;71.30;;;;;;4980450;28;19992;-64
2022/02/22 07:48:44;;;;;;;;;;;12.20;71.50;;;;;;4980526;28;19902;-64
2022/02/22 07:51:11;;;;;;;;;;;12.10;71.50;;;;;;4980408;28;19917;-64
2022/02/22 07:53:37;;;;;;;;;;;12.10;71.60;;;;;;4980402;28;20218;-64
2022/02/22 07:56:04;;;;;;;;;;;12.10;71.70;;;;;;4980385;28;19909;-65
2022/02/22 07:58:30;;;;;;;;;;;12.10;71.90;;;;;;4980366;28;20341;-63
2022/02/22 08:00:55;;;;;;;;;;;12.00;72.00;;;;;;4980212;28;19914;-64
2022/02/22 08:03:21;;;;;;;;;;;12.00;72.00;;;;;;4980240;28;19941;-64
2022/02/22 08:05:46;;;;;;;;;;;12.20;71.80;;;;;;4980453;28;20094;-64
2022/02/22 08:08:12;;;;;;;;;;;12.40;70.80;;;;;;4980171;28;19972;-65
2022/02/22 08:10:38;;;;;;;;;;;12.70;70.00;;;;;;4980122;28;19908;-64
2022/02/22 08:13:03;;;;;;;;;;;12.90;69.00;;;;;;4980103;28;19902;-64
2022/02/22 08:15:29;;;;;;;;;;;13.10;68.50;;;;;;4980035;28;20232;-64
2022/02/22 08:17:54;;;;;;;;;;;13.50;67.20;;;;;;4980102;28;19910;-64
2022/02/22 08:20:20;;;;;;;;;;;14.30;64.40;;;;;;4979941;28;20233;-65
2022/02/22 08:22:47;;;;;;;;;;;15.10;61.30;;;;;;4979916;28;19910;-65
2022/02/22 08:25:13;;;;;;;;;;;16.20;57.90;;;;;;4979851;28;19917;-65
2022/02/22 08:27:38;;;;;;;;;;;17.80;54.50;;;;;;4979855;28;19909;-65
2022/02/22 08:30:04;;;;;;;;;;;18.60;52.00;;;;;;4979925;28;20207;-66
2022/02/22 08:32:30;;;;;;;;;;;19.00;50.60;;;;;;4979849;28;20235;-65
2022/02/22 08:34:55;;;;;;;;;;;19.20;49.90;;;;;;4979872;28;19942;-65
2022/02/22 08:37:21;;;;;;;;;;;18.90;50.70;;;;;;4979760;28;20018;-65
2022/02/22 08:39:46;;;;;;;;;;;18.60;51.70;;;;;;4979692;28;20254;-64
2022/02/22 08:42:12;;;;;;;;;;;18.80;51.20;;;;;;4979516;28;19965;-65
2022/02/22 08:44:38;;;;;;;;;;;18.40;50.20;;;;;;4979538;28;19910;-65
2022/02/22 08:47:04;;;;;;;;;;;18.30;51.90;;;;;;4979636;28;19910;-65
2022/02/22 08:49:29;;;;;;;;;;;17.10;53.50;;;;;;4979458;28;19910;-64
2022/02/22 08:51:55;;;;;;;;;;;15.90;57.40;;;;;;4979495;28;20377;-65
2022/02/22 08:54:20;;;;;;;;;;;15.60;59.30;;;;;;4979483;28;19909;-65
2022/02/22 08:56:46;;;;;;;;;;;15.10;60.40;;;;;;4979454;28;20221;-65
2022/02/22 08:59:11;;;;;;;;;;;14.20;63.00;;;;;;4979441;28;19910;-64
2022/02/22 09:01:37;;;;;;;;;;;13.90;64.80;;;;;;4979354;28;19906;-64
2022/02/22 09:04:03;;;;;;;;;;;13.70;65.60;;;;;;4979262;28;19913;-64
2022/02/22 09:06:28;;;;;;;;;;;13.40;66.80;;;;;;4979287;28;20185;-64
2022/02/22 09:08:54;;;;;;;;;;;13.20;67.70;;;;;;4979308;28;20027;-64
2022/02/22 09:11:19;;;;;;;;;;;13.00;68.40;;;;;;4979225;28;19917;-65
2022/02/22 09:13:45;;;;;;;;;;;12.90;68.90;;;;;;4979175;28;19996;-64
2022/02/22 09:16:11;;;;;;;;;;;12.90;69.10;;;;;;4979158;28;20161;-64
2022/02/22 09:18:36;;;;;;;;;;;13.00;69.00;;;;;;4979107;28;19917;-64
2022/02/22 09:21:02;;;;;;;;;;;13.10;68.80;;;;;;4979039;28;19902;-64
2022/02/22 09:23:28;;;;;;;;;;;13.10;68.60;;;;;;4978534;28;19910;-65
2022/02/22 09:25:55;;;;;;;;;;;13.00;68.80;;;;;;4978888;28;19969;-64
2022/02/22 09:28:21;;;;;;;;;;;13.00;69.00;;;;;;4978964;28;19910;-64
2022/02/22 09:30:47;;;;;;;;;;;13.10;68.60;;;;;;4978911;28;20110;-64
2022/02/22 09:33:12;;;;;;;;;;;13.20;69.00;;;;;;4978914;28;20097;-64
2022/02/22 09:35:38;;;;;;;;;;;13.20;68.20;;;;;;4978815;28;19999;-64
2022/02/22 09:38:04;;;;;;;;;;;13.10;68.60;;;;;;4978860;28;19909;-64
2022/02/22 09:40:30;;;;;;;;;;;13.10;68.80;;;;;;4978748;28;19910;-64
2022/02/22 09:42:55;;;;;;;;;;;13.10;68.60;;;;;;4978645;28;20150;-64
2022/02/22 09:45:22;;;;;;;;;;;13.20;68.60;;;;;;4978648;28;20401;-65
2022/02/22 09:47:48;;;;;;;;;;;13.30;68.50;;;;;;4978648;28;20133;-64
2022/02/22 09:50:14;;;;;;;;;;;13.30;68.30;;;;;;4978726;28;19902;-64
2022/02/22 09:52:40;;;;;;;;;;;13.30;68.30;;;;;;4978588;28;19910;-64
2022/02/22 09:55:06;;;;;;;;;;;13.30;68.30;;;;;;4978612;28;19917;-64
2022/02/22 09:57:32;;;;;;;;;;;13.40;67.90;;;;;;4978541;28;19910;-64
2022/02/22 09:59:58;;;;;;;;;;;13.40;67.80;;;;;;4978429;28;19902;-64
2022/02/22 10:02:33;;;;;;;;;;;13.30;68.10;;;;;;4978505;28;19906;-64
2022/02/22 10:04:59;;;;;;;;;;;13.20;68.60;;;;;;4978608;28;19979;-64
2022/02/22 10:07:25;;;;;;;;;;;13.10;69.00;;;;;;4978411;28;19969;-64
2022/02/22 10:09:54;;;;;;;;;;;13.00;69.30;;;;;;4978320;28;19910;-65
2022/02/22 10:12:36;;;;;;;;;;;13.00;69.50;;;;;;4978511;28;19955;-64
2022/02/22 10:15:03;;;;;;;;;;;12.90;69.50;;;;;;4978344;28;19951;-64
2022/02/22 10:17:34;;;;;;;;;;;12.90;69.70;;;;;;4978400;28;19972;-64
2022/02/22 10:20:03;;;;;;;;;;;13.00;69.70;;;;;;4978180;28;19910;-64
2022/02/22 10:22:29;;;;;;;;;;;13.00;69.60;;;;;;4978106;28;20098;-64
2022/02/22 10:25:11;;;;;;;;;;;13.00;69.50;;;;;;4978260;28;19941;-64
2022/02/22 10:27:48;;;;;;;;;;;13.00;69.70;;;;;;4978074;28;19910;-64
2022/02/22 10:30:25;;;;;;;;;;;13.00;69.70;;;;;;4978131;28;19902;-63
2022/02/22 10:32:51;;;;;;;;;;;13.00;69.70;;;;;;4977984;28;19925;-64
2022/02/22 10:35:46;;;;;;;;;;;13.00;69.60;;;;;;4978026;28;19914;-64
2022/02/22 10:38:16;;;;;;;;;;;13.10;69.50;;;;;;4994035;28;19914;-65
2022/02/22 10:40:43;;;;;;;;;;;13.20;69.40;;;;;;4981510;28;20229;-64
2022/02/22 10:43:19;;;;;;;;;;;13.20;69.30;;;;;;4981291;28;19989;-64
2022/02/22 10:45:48;;;;;;;;;;;13.20;69.30;;;;;;4981412;28;19953;-64
2022/02/22 10:48:23;;;;;;;;;;;13.20;69.20;;;;;;4981418;28;19908;-65
2022/02/22 10:50:52;;;;;;;;;;;13.20;70.00;;;;;;4981254;28;19908;-64
2022/02/22 10:53:18;;;;;;;;;;;13.20;69.30;;;;;;4981293;28;19955;-64
2022/02/22 10:55:44;;;;;;;;;;;13.20;69.30;;;;;;4981236;28;19914;-64
2022/02/22 10:58:10;;;;;;;;;;;13.20;69.40;;;;;;4981098;28;19910;-65
2022/02/22 11:00:36;;;;;;;;;;;13.10;69.40;;;;;;4981122;28;19952;-64
2022/02/22 11:03:02;;;;;;;;;;;13.10;69.60;;;;;;4981131;28;19910;-65
2022/02/22 11:05:28;;;;;;;;;;;13.10;69.70;;;;;;4980965;28;19913;-65
2022/02/22 11:07:54;;;;;;;;;;;13.00;69.80;;;;;;4981029;28;19910;-65
2022/02/22 11:10:24;;;;;;;;;;;13.00;69.80;;;;;;4980926;28;19933;-65
2022/02/22 11:12:54;;;;;;;;;;;13.00;69.80;;;;;;4981023;28;19910;-65
2022/02/22 11:15:31;;;;;;;;;;;13.00;69.90;;;;;;4980933;28;20233;-64
2022/02/22 11:18:01;;;;;;;;;;;12.90;70.00;;;;;;4980900;28;20237;-64
2022/02/22 11:20:31;;;;;;;;;;;12.90;70.10;;;;;;4980887;28;19981;-64
2022/02/22 11:22:58;;;;;;;;;;;12.90;70.20;;;;;;4980881;28;19917;-64
2022/02/22 11:25:30;;;;;;;;;;;12.90;70.20;;;;;;4980858;28;19913;-64
2022/02/22 11:28:05;;;;;;;;;;;12.90;70.10;;;;;;4980810;28;19971;-64
2022/02/22 11:30:32;;;;;;;;;;;12.90;70.10;;;;;;4980888;28;19929;-64
2022/02/22 11:32:57;;;;;;;;;;;13.00;69.90;;;;;;4980677;28;19910;-64
2022/02/22 11:35:24;;;;;;;;;;;13.10;69.80;;;;;;4980727;28;19965;-64
2022/02/22 11:37:51;;;;;;;;;;;13.10;69.70;;;;;;4980510;28;19917;-64
2022/02/22 11:40:30;;;;;;;;;;;13.10;69.80;;;;;;4980579;28;19952;-63
2022/02/22 11:43:05;;;;;;;;;;;13.10;69.70;;;;;;4980375;28;20292;-64
2022/02/22 11:45:31;;;;;;;;;;;13.10;69.70;;;;;;4980434;28;19914;-64
2022/02/22 11:48:13;;;;;;;;;;;13.10;69.60;;;;;;4980049;28;19910;-64
2022/02/22 11:50:39;;;;;;;;;;;13.20;69.40;;;;;;4980396;28;19969;-64
2022/02/22 11:53:09;;;;;;;;;;;13.40;69.30;;;;;;4980338;28;20228;-64
2022/02/22 11:55:36;;;;;;;;;;;13.40;69.20;;;;;;4980317;28;20222;-64
2022/02/22 11:58:10;;;;;;;;;;;13.40;69.20;;;;;;4980302;28;19910;-64
2022/02/22 12:00:36;;;;;;;;;;;13.40;69.20;;;;;;4980339;28;19909;-64
2022/02/22 12:03:08;;;;;;;;;;;13.40;69.20;;;;;;4980226;28;20150;-65
2022/02/22 12:05:38;;;;;;;;;;;13.40;69.40;;;;;;4980146;28;19905;-64
2022/02/22 12:08:06;;;;;;;;;;;13.40;69.40;;;;;;4980280;28;19910;-64
2022/02/22 12:10:32;;;;;;;;;;;13.40;69.30;;;;;;4980167;28;19909;-64
2022/02/22 12:13:05;;;;;;;;;;;13.40;69.50;;;;;;4980063;28;19975;-63
2022/02/22 12:15:32;;;;;;;;;;;13.50;69.10;;;;;;4978906;28;19916;-64
2022/02/22 12:17:57;;;;;;;;;;;13.50;69.10;;;;;;4979966;28;19941;-64
2022/02/22 12:20:25;;;;;;;;;;;13.50;69.00;;;;;;4980064;28;19902;-64
2022/02/22 12:22:51;;;;;;;;;;;13.50;69.10;;;;;;4979991;28;19906;-66
2022/02/22 12:25:16;;;;;;;;;;;13.50;69.30;;;;;;4979836;28;19921;-65
2022/02/22 12:27:45;;;;;;;;;;;13.40;69.40;;;;;;4979940;28;20198;-65
2022/02/22 12:30:11;;;;;;;;;;;13.40;69.60;;;;;;4979825;28;19912;-64
2022/02/22 12:32:36;;;;;;;;;;;13.40;69.50;;;;;;4979848;28;19950;-65
2022/02/22 12:35:06;;;;;;;;;;;13.50;69.40;;;;;;4979777;28;19910;-65
2022/02/22 12:37:44;;;;;;;;;;;13.50;69.40;;;;;;4979690;28;19910;-64
2022/02/22 12:40:13;;;;;;;;;;;13.40;69.40;;;;;;4979604;28;20209;-64
2022/02/22 12:42:38;;;;;;;;;;;13.40;69.50;;;;;;4979419;28;19914;-65
2022/02/22 12:45:17;;;;;;;;;;;13.40;69.50;;;;;;4979519;28;19981;-64
2022/02/22 12:47:43;;;;;;;;;;;13.30;69.50;;;;;;4979583;28;19902;-63
2022/02/22 12:50:09;;;;;;;;;;;13.30;69.60;;;;;;4979423;28;19902;-64
2022/02/22 12:52:35;;;;;;;;;;;13.30;69.70;;;;;;4979527;28;19977;-65
2022/02/22 12:55:05;;;;;;;;;;;13.20;69.80;;;;;;4979398;28;20237;-64
2022/02/22 12:57:30;;;;;;;;;;;13.20;69.90;;;;;;4979392;28;20226;-64
2022/02/22 13:00:03;;;;;;;;;;;13.20;70.00;;;;;;4978445;28;19945;-64
2022/02/22 13:02:29;;;;;;;;;;;13.20;70.00;;;;;;4979323;28;19960;-64
2022/02/22 13:04:54;;;;;;;;;;;13.10;70.00;;;;;;4979298;28;20364;-64
2022/02/22 13:07:20;;;;;;;;;;;13.10;70.00;;;;;;4979242;28;19902;-64
2022/02/22 13:09:49;;;;;;;;;;;13.10;70.10;;;;;;4979231;28;19910;-64
2022/02/22 13:12:19;;;;;;;;;;;13.10;70.20;;;;;;4979147;28;19942;-64
2022/02/22 13:14:45;;;;;;;;;;;13.10;70.10;;;;;;4979204;28;19963;-64
2022/02/22 13:17:11;;;;;;;;;;;13.10;70.20;;;;;;4977788;28;19959;-64
2022/02/22 13:19:39;;;;;;;;;;;13.00;70.10;;;;;;4979059;28;19917;-65
2022/02/22 13:22:06;;;;;;;;;;;13.10;70.00;;;;;;4979038;28;19956;-65
2022/02/22 13:24:32;;;;;;;;;;;13.10;69.80;;;;;;4978923;28;19957;-64
2022/02/22 13:26:59;;;;;;;;;;;13.20;69.80;;;;;;4978945;28;19902;-64
2022/02/22 13:29:26;;;;;;;;;;;13.20;69.80;;;;;;4978967;28;19917;-64
2022/02/22 13:32:05;;;;;;;;;;;13.20;69.80;;;;;;4978907;28;19917;-64
2022/02/22 13:34:32;;;;;;;;;;;13.20;69.60;;;;;;4978851;28;19910;-64
2022/02/22 13:36:58;;;;;;;;;;;13.40;69.30;;;;;;4978814;28;19925;-64
2022/02/22 13:39:24;;;;;;;;;;;13.50;69.10;;;;;;4978793;28;19914;-64
2022/02/22 13:41:55;;;;;;;;;;;13.60;68.80;;;;;;4978885;28;20187;-64
2022/02/22 13:44:30;;;;;;;;;;;13.70;68.70;;;;;;4978558;28;19918;-64
2022/02/22 13:46:57;;;;;;;;;;;13.80;68.50;;;;;;4978863;28;19926;-64
2022/02/22 13:49:23;;;;;;;;;;;13.90;68.30;;;;;;4978669;28;19909;-64
2022/02/22 13:51:53;;;;;;;;;;;13.90;68.30;;;;;;4978544;28;19955;-64
2022/02/22 13:54:26;;;;;;;;;;;13.90;68.20;;;;;;4978497;28;19902;-64
2022/02/22 13:56:55;;;;;;;;;;;14.00;68.00;;;;;;4978511;28;19914;-64
2022/02/22 13:59:30;;;;;;;;;;;14.00;67.90;;;;;;4978467;28;19910;-64
2022/02/22 14:01:55;;;;;;;;;;;13.90;68.40;;;;;;4978481;28;19937;-65
2022/02/22 14:04:21;;;;;;;;;;;13.90;68.20;;;;;;4978330;28;19921;-64
2022/02/22 14:06:46;;;;;;;;;;;13.90;68.10;;;;;;4978423;28;19941;-65
2022/02/22 14:09:12;;;;;;;;;;;13.80;68.40;;;;;;4978360;28;19969;-65
2022/02/22 14:11:46;;;;;;;;;;;14.00;68.10;;;;;;4978093;28;19902;-65
2022/02/22 14:14:12;;;;;;;;;;;14.30;67.10;;;;;;4978272;28;19925;-65